UPS897 KRNO-KONT
Flight info
| Callsign | UPS897 |
|---|---|
| Flight time | 0h 59m |
| Altitude | 31000 |
| Route | ZEFFR9 DARBI FRA LANDO J6 PMD ZIGGY8 |
| Aircraft | B764/H-SDE3FGHIM3RWXY/LB1 |
Departure
| Time | 2026-05-05 01:08 |
|---|---|
| Airport | Reno Tahoe International Airport (KRNO) |
Arrival
| Time | 2026-05-05 02:07 |
|---|---|
| Airport | Ontario International Airport (KONT) |
| Time | Latitude | Longitude | Altitude | Speed | Heading |
|---|---|---|---|---|---|
| 2026-05-05 00:40 | 39.50962 | -119.77424 | 4427 ft | 0 kts | 323° |
| 2026-05-05 00:58 | 39.50953 | -119.77415 | 4427 ft | 2 kts | 323° |
| 2026-05-05 00:58 | 39.50940 | -119.77404 | 4427 ft | 2 kts | 347° |
| 2026-05-05 00:59 | 39.50925 | -119.77404 | 4427 ft | 2 kts | 25° |
| 2026-05-05 00:59 | 39.50913 | -119.77416 | 4427 ft | 2 kts | 59° |
| 2026-05-05 00:59 | 39.50909 | -119.77431 | 4427 ft | 0 kts | 87° |
| 2026-05-05 00:59 | 39.50909 | -119.77439 | 4427 ft | 1 kts | 90° |
| 2026-05-05 01:00 | 39.50909 | -119.77440 | 4427 ft | 0 kts | 90° |
| 2026-05-05 01:03 | 39.50909 | -119.77438 | 4426 ft | 1 kts | 90° |
| 2026-05-05 01:03 | 39.50909 | -119.77411 | 4426 ft | 4 kts | 90° |
| 2026-05-05 01:03 | 39.50909 | -119.77361 | 4426 ft | 6 kts | 89° |
| 2026-05-05 01:03 | 39.50909 | -119.77296 | 4426 ft | 7 kts | 89° |
| 2026-05-05 01:04 | 39.50909 | -119.77222 | 4426 ft | 8 kts | 89° |
| 2026-05-05 01:04 | 39.50977 | -119.77151 | 4426 ft | 8 kts | 1° |
| 2026-05-05 01:04 | 39.51031 | -119.77150 | 4426 ft | 9 kts | 1° |
| 2026-05-05 01:05 | 39.51054 | -119.77149 | 4426 ft | 10 kts | 1° |
| 2026-05-05 01:05 | 39.51135 | -119.77148 | 4426 ft | 12 kts | 0° |
| 2026-05-05 01:05 | 39.51231 | -119.77148 | 4427 ft | 14 kts | 360° |
| 2026-05-05 01:05 | 39.51324 | -119.77148 | 4426 ft | 11 kts | 2° |
| 2026-05-05 01:06 | 39.51370 | -119.77105 | 4426 ft | 6 kts | 73° |
| 2026-05-05 01:06 | 39.51373 | -119.77050 | 4426 ft | 5 kts | 88° |
| 2026-05-05 01:06 | 39.51374 | -119.76997 | 4427 ft | 5 kts | 89° |
| 2026-05-05 01:06 | 39.51373 | -119.76945 | 4426 ft | 4 kts | 108° |
| 2026-05-05 01:07 | 39.51363 | -119.76933 | 4426 ft | 1 kts | 150° |
| 2026-05-05 01:07 | 39.51331 | -119.76923 | 4426 ft | 8 kts | 175° |
| 2026-05-05 01:07 | 39.51245 | -119.76924 | 4426 ft | 20 kts | 180° |
| 2026-05-05 01:07 | 39.50910 | -119.76925 | 4427 ft | 77 kts | 179° |
| 2026-05-05 01:08 | 39.50189 | -119.76926 | 4427 ft | 130 kts | 180° |
| 2026-05-05 01:08 | 39.49122 | -119.76930 | 4480 ft | 172 kts | 179° |
| 2026-05-05 01:08 | 39.47892 | -119.76939 | 4922 ft | 182 kts | 179° |
| 2026-05-05 01:08 | 39.46645 | -119.76940 | 5583 ft | 184 kts | 178° |
| 2026-05-05 01:09 | 39.45333 | -119.76927 | 6017 ft | 198 kts | 178° |
| 2026-05-05 01:09 | 39.43910 | -119.76914 | 6499 ft | 214 kts | 178° |
| 2026-05-05 01:09 | 39.42352 | -119.76910 | 6952 ft | 233 kts | 179° |
| 2026-05-05 01:09 | 39.40717 | -119.76918 | 7660 ft | 241 kts | 179° |
| 2026-05-05 01:10 | 39.39012 | -119.76933 | 8211 ft | 257 kts | 179° |
| 2026-05-05 01:10 | 39.37198 | -119.76944 | 8860 ft | 269 kts | 179° |
| 2026-05-05 01:10 | 39.35341 | -119.76950 | 9915 ft | 265 kts | 179° |
| 2026-05-05 01:10 | 39.33521 | -119.76937 | 10679 ft | 273 kts | 179° |
| 2026-05-05 01:11 | 39.31524 | -119.76933 | 10993 ft | 298 kts | 178° |
| 2026-05-05 01:11 | 39.29428 | -119.76867 | 11698 ft | 309 kts | 178° |
| 2026-05-05 01:11 | 39.27307 | -119.76782 | 12716 ft | 309 kts | 178° |
| 2026-05-05 01:11 | 39.25111 | -119.76705 | 13129 ft | 330 kts | 178° |
| 2026-05-05 01:12 | 39.22755 | -119.76623 | 13600 ft | 349 kts | 178° |
| 2026-05-05 01:12 | 39.20296 | -119.76530 | 14308 ft | 362 kts | 177° |
| 2026-05-05 01:12 | 39.17731 | -119.76428 | 14917 ft | 377 kts | 177° |
| 2026-05-05 01:12 | 39.15108 | -119.76331 | 15875 ft | 382 kts | 177° |
| 2026-05-05 01:13 | 39.12460 | -119.76231 | 16806 ft | 388 kts | 177° |
| 2026-05-05 01:13 | 39.09757 | -119.76130 | 17729 ft | 393 kts | 177° |
| 2026-05-05 01:13 | 39.07040 | -119.76028 | 18611 ft | 398 kts | 177° |
| 2026-05-05 01:13 | 39.04261 | -119.75923 | 19481 ft | 403 kts | 176° |
| 2026-05-05 01:14 | 39.01456 | -119.75818 | 20286 ft | 409 kts | 176° |
| 2026-05-05 01:14 | 38.98607 | -119.75711 | 21005 ft | 417 kts | 176° |
| 2026-05-05 01:14 | 38.95688 | -119.75601 | 21721 ft | 425 kts | 176° |
| 2026-05-05 01:14 | 38.92721 | -119.75488 | 22385 ft | 434 kts | 176° |
| 2026-05-05 01:15 | 38.89680 | -119.75374 | 23052 ft | 442 kts | 176° |
| 2026-05-05 01:15 | 38.86560 | -119.75257 | 23716 ft | 450 kts | 176° |
| 2026-05-05 01:15 | 38.83456 | -119.75142 | 24510 ft | 453 kts | 176° |
| 2026-05-05 01:15 | 38.80297 | -119.75024 | 25221 ft | 459 kts | 175° |
| 2026-05-05 01:16 | 38.77066 | -119.74903 | 25948 ft | 464 kts | 175° |
| 2026-05-05 01:16 | 38.73821 | -119.74783 | 26658 ft | 468 kts | 175° |
| 2026-05-05 01:16 | 38.70547 | -119.74661 | 27302 ft | 474 kts | 175° |
| 2026-05-05 01:16 | 38.67245 | -119.74538 | 27995 ft | 478 kts | 175° |
| 2026-05-05 01:17 | 38.63918 | -119.74414 | 28674 ft | 482 kts | 175° |
| 2026-05-05 01:17 | 38.60585 | -119.74290 | 29313 ft | 487 kts | 175° |
| 2026-05-05 01:17 | 38.57185 | -119.74165 | 30169 ft | 486 kts | 175° |
| 2026-05-05 01:17 | 38.53858 | -119.74043 | 30943 ft | 480 kts | 175° |
| 2026-05-05 01:18 | 38.50502 | -119.73917 | 31008 ft | 491 kts | 175° |
| 2026-05-05 01:18 | 38.47042 | -119.73786 | 31026 ft | 503 kts | 175° |
| 2026-05-05 01:18 | 38.39968 | -119.73527 | 30997 ft | 499 kts | 175° |
| 2026-05-05 01:19 | 38.36543 | -119.73405 | 30995 ft | 483 kts | 175° |
| 2026-05-05 01:19 | 38.33214 | -119.73282 | 31010 ft | 482 kts | 175° |
| 2026-05-05 01:19 | 38.26615 | -119.72804 | 31027 ft | 483 kts | 171° |
| 2026-05-05 01:20 | 38.19972 | -119.72018 | 31008 ft | 478 kts | 171° |
| 2026-05-05 01:20 | 38.13412 | -119.71253 | 31011 ft | 478 kts | 171° |
| 2026-05-05 01:21 | 38.06811 | -119.70491 | 31003 ft | 478 kts | 171° |
| 2026-05-05 01:21 | 38.00196 | -119.69729 | 31015 ft | 478 kts | 171° |
| 2026-05-05 01:22 | 37.93588 | -119.68971 | 31028 ft | 478 kts | 171° |
| 2026-05-05 01:22 | 37.86949 | -119.68210 | 31025 ft | 478 kts | 171° |
| 2026-05-05 01:23 | 37.80355 | -119.67457 | 31014 ft | 478 kts | 171° |
| 2026-05-05 01:23 | 37.73739 | -119.66702 | 31003 ft | 478 kts | 171° |
| 2026-05-05 01:24 | 37.67140 | -119.65949 | 31000 ft | 479 kts | 171° |
| 2026-05-05 01:24 | 37.60460 | -119.65188 | 31007 ft | 489 kts | 171° |
| 2026-05-05 01:25 | 37.53722 | -119.64425 | 31006 ft | 486 kts | 171° |
| 2026-05-05 01:25 | 37.46977 | -119.63660 | 31018 ft | 486 kts | 171° |
| 2026-05-05 01:26 | 37.40266 | -119.62901 | 31027 ft | 486 kts | 171° |
| 2026-05-05 01:26 | 37.33577 | -119.62146 | 31025 ft | 487 kts | 171° |
| 2026-05-05 01:27 | 37.26828 | -119.61385 | 31023 ft | 485 kts | 171° |
| 2026-05-05 01:27 | 37.23529 | -119.61016 | 31007 ft | 471 kts | 171° |
| 2026-05-05 01:27 | 37.20256 | -119.60646 | 31032 ft | 479 kts | 171° |
| 2026-05-05 01:28 | 37.13569 | -119.59887 | 31024 ft | 487 kts | 170° |
| 2026-05-05 01:28 | 37.07098 | -119.57833 | 31031 ft | 475 kts | 156° |
| 2026-05-05 01:29 | 37.00932 | -119.54932 | 31028 ft | 471 kts | 156° |
| 2026-05-05 01:29 | 36.94872 | -119.52046 | 31027 ft | 469 kts | 156° |
| 2026-05-05 01:30 | 36.88786 | -119.49139 | 31025 ft | 469 kts | 156° |
| 2026-05-05 01:30 | 36.82655 | -119.46210 | 31023 ft | 469 kts | 156° |
| 2026-05-05 01:31 | 36.76574 | -119.43309 | 31024 ft | 469 kts | 156° |
| 2026-05-05 01:31 | 36.70486 | -119.40407 | 31023 ft | 469 kts | 156° |
| 2026-05-05 01:32 | 36.64367 | -119.37496 | 31018 ft | 470 kts | 156° |
| 2026-05-05 01:32 | 36.58241 | -119.34586 | 31019 ft | 470 kts | 156° |
| 2026-05-05 01:33 | 36.52163 | -119.31703 | 31020 ft | 470 kts | 156° |
| 2026-05-05 01:33 | 36.46050 | -119.28809 | 31019 ft | 470 kts | 156° |
| 2026-05-05 01:34 | 36.39967 | -119.25934 | 31019 ft | 470 kts | 156° |
| 2026-05-05 01:34 | 36.33837 | -119.23041 | 31019 ft | 470 kts | 156° |
| 2026-05-05 01:35 | 36.27737 | -119.20167 | 31020 ft | 470 kts | 156° |
| 2026-05-05 01:35 | 36.21610 | -119.17287 | 31019 ft | 470 kts | 156° |
| 2026-05-05 01:36 | 36.15491 | -119.14414 | 31016 ft | 470 kts | 156° |
| 2026-05-05 01:36 | 36.09396 | -119.11556 | 31017 ft | 470 kts | 156° |
| 2026-05-05 01:37 | 36.03282 | -119.08695 | 31017 ft | 470 kts | 156° |
| 2026-05-05 01:37 | 35.97190 | -119.05849 | 31017 ft | 470 kts | 156° |
| 2026-05-05 01:38 | 35.91092 | -119.03006 | 31018 ft | 470 kts | 156° |
| 2026-05-05 01:38 | 35.85001 | -119.00169 | 31017 ft | 468 kts | 157° |
| 2026-05-05 01:39 | 35.78920 | -118.97342 | 31011 ft | 466 kts | 157° |
| 2026-05-05 01:39 | 35.72877 | -118.94537 | 31004 ft | 465 kts | 157° |
| 2026-05-05 01:40 | 35.66807 | -118.91724 | 30993 ft | 466 kts | 158° |
| 2026-05-05 01:40 | 35.60740 | -118.88918 | 30986 ft | 465 kts | 158° |
| 2026-05-05 01:41 | 35.54679 | -118.86119 | 30982 ft | 465 kts | 158° |
| 2026-05-05 01:41 | 35.48667 | -118.83348 | 30786 ft | 469 kts | 158° |
| 2026-05-05 01:42 | 35.45638 | -118.81952 | 30469 ft | 460 kts | 159° |
| 2026-05-05 01:42 | 35.42648 | -118.80576 | 30292 ft | 461 kts | 159° |
| 2026-05-05 01:42 | 35.39619 | -118.79183 | 30166 ft | 473 kts | 159° |
| 2026-05-05 01:42 | 35.36556 | -118.77777 | 30158 ft | 462 kts | 159° |
| 2026-05-05 01:43 | 35.33621 | -118.76431 | 29957 ft | 450 kts | 159° |
| 2026-05-05 01:43 | 35.30708 | -118.75095 | 29758 ft | 447 kts | 159° |
| 2026-05-05 01:43 | 35.27817 | -118.73769 | 29570 ft | 448 kts | 159° |
| 2026-05-05 01:43 | 35.24897 | -118.72431 | 29378 ft | 448 kts | 159° |
| 2026-05-05 01:44 | 35.21992 | -118.71103 | 29184 ft | 446 kts | 159° |
| 2026-05-05 01:44 | 35.19085 | -118.69775 | 28995 ft | 444 kts | 159° |
| 2026-05-05 01:44 | 35.16243 | -118.68475 | 28805 ft | 442 kts | 159° |
| 2026-05-05 01:44 | 35.13354 | -118.67156 | 28611 ft | 442 kts | 159° |
| 2026-05-05 01:45 | 35.10500 | -118.65855 | 28346 ft | 440 kts | 159° |
| 2026-05-05 01:45 | 35.07640 | -118.64549 | 27990 ft | 438 kts | 158° |
| 2026-05-05 01:45 | 35.04815 | -118.63219 | 27585 ft | 435 kts | 155° |
| 2026-05-05 01:45 | 35.02187 | -118.61456 | 27164 ft | 429 kts | 145° |
| 2026-05-05 01:46 | 34.99911 | -118.59226 | 26756 ft | 423 kts | 135° |
| 2026-05-05 01:46 | 34.97941 | -118.56615 | 26325 ft | 418 kts | 131° |
| 2026-05-05 01:46 | 34.96042 | -118.53928 | 25891 ft | 415 kts | 131° |
| 2026-05-05 01:46 | 34.94184 | -118.51266 | 25463 ft | 411 kts | 130° |
| 2026-05-05 01:47 | 34.92357 | -118.48633 | 25041 ft | 407 kts | 130° |
| 2026-05-05 01:47 | 34.90552 | -118.46021 | 24624 ft | 404 kts | 131° |
| 2026-05-05 01:47 | 34.88755 | -118.43415 | 24217 ft | 401 kts | 131° |
| 2026-05-05 01:47 | 34.86960 | -118.40812 | 23814 ft | 398 kts | 131° |
| 2026-05-05 01:48 | 34.85191 | -118.38248 | 23414 ft | 395 kts | 131° |
| 2026-05-05 01:48 | 34.83450 | -118.35723 | 23020 ft | 393 kts | 131° |
| 2026-05-05 01:48 | 34.81687 | -118.33168 | 22625 ft | 390 kts | 131° |
| 2026-05-05 01:48 | 34.79954 | -118.30656 | 22235 ft | 387 kts | 131° |
| 2026-05-05 01:49 | 34.78234 | -118.28167 | 21847 ft | 385 kts | 131° |
| 2026-05-05 01:49 | 34.76523 | -118.25690 | 21461 ft | 382 kts | 131° |
| 2026-05-05 01:49 | 34.74816 | -118.23222 | 21076 ft | 380 kts | 131° |
| 2026-05-05 01:49 | 34.73132 | -118.20789 | 20697 ft | 378 kts | 131° |
| 2026-05-05 01:50 | 34.71432 | -118.18333 | 20315 ft | 375 kts | 131° |
| 2026-05-05 01:50 | 34.69759 | -118.15919 | 19939 ft | 373 kts | 131° |
| 2026-05-05 01:50 | 34.68099 | -118.13525 | 19567 ft | 371 kts | 131° |
| 2026-05-05 01:50 | 34.66429 | -118.11118 | 19191 ft | 368 kts | 131° |
| 2026-05-05 01:51 | 34.64797 | -118.08768 | 18825 ft | 366 kts | 131° |
| 2026-05-05 01:51 | 34.63206 | -118.06369 | 18451 ft | 364 kts | 125° |
| 2026-05-05 01:51 | 34.61937 | -118.03713 | 18105 ft | 362 kts | 120° |
| 2026-05-05 01:51 | 34.60747 | -118.01116 | 17770 ft | 361 kts | 120° |
| 2026-05-05 01:52 | 34.59571 | -117.98543 | 17436 ft | 359 kts | 120° |
| 2026-05-05 01:52 | 34.58374 | -117.95924 | 17097 ft | 357 kts | 120° |
| 2026-05-05 01:52 | 34.57168 | -117.93285 | 16756 ft | 355 kts | 120° |
| 2026-05-05 01:52 | 34.55975 | -117.90677 | 16420 ft | 353 kts | 120° |
| 2026-05-05 01:53 | 34.54791 | -117.88089 | 16088 ft | 351 kts | 120° |
| 2026-05-05 01:53 | 34.53616 | -117.85525 | 15758 ft | 349 kts | 120° |
| 2026-05-05 01:53 | 34.52441 | -117.82961 | 15430 ft | 347 kts | 119° |
| 2026-05-05 01:53 | 34.51266 | -117.80396 | 15100 ft | 345 kts | 119° |
| 2026-05-05 01:54 | 34.50111 | -117.77879 | 14777 ft | 343 kts | 119° |
| 2026-05-05 01:54 | 34.48956 | -117.75364 | 14493 ft | 341 kts | 119° |
| 2026-05-05 01:54 | 34.47798 | -117.72842 | 14362 ft | 341 kts | 119° |
| 2026-05-05 01:54 | 34.46644 | -117.70332 | 14240 ft | 341 kts | 119° |
| 2026-05-05 01:55 | 34.45489 | -117.67824 | 14132 ft | 337 kts | 119° |
| 2026-05-05 01:55 | 34.44419 | -117.65498 | 13998 ft | 302 kts | 119° |
| 2026-05-05 01:55 | 34.43402 | -117.63290 | 14022 ft | 293 kts | 119° |
| 2026-05-05 01:55 | 34.42422 | -117.61165 | 13905 ft | 291 kts | 119° |
| 2026-05-05 01:56 | 34.41427 | -117.59009 | 13277 ft | 299 kts | 119° |
| 2026-05-05 01:56 | 34.40412 | -117.56811 | 12806 ft | 300 kts | 119° |
| 2026-05-05 01:56 | 34.39395 | -117.54610 | 12441 ft | 298 kts | 118° |
| 2026-05-05 01:56 | 34.38398 | -117.52451 | 12088 ft | 295 kts | 118° |
| 2026-05-05 01:57 | 34.37400 | -117.50292 | 11733 ft | 293 kts | 119° |
| 2026-05-05 01:57 | 34.36404 | -117.48138 | 11376 ft | 291 kts | 119° |
| 2026-05-05 01:57 | 34.35421 | -117.46015 | 11034 ft | 288 kts | 120° |
| 2026-05-05 01:57 | 34.34468 | -117.43958 | 10969 ft | 276 kts | 120° |
| 2026-05-05 01:58 | 34.33534 | -117.41944 | 10979 ft | 273 kts | 120° |
| 2026-05-05 01:58 | 34.32622 | -117.39978 | 10895 ft | 265 kts | 120° |
| 2026-05-05 01:58 | 34.31731 | -117.38057 | 10674 ft | 260 kts | 120° |
| 2026-05-05 01:58 | 34.30853 | -117.36171 | 10462 ft | 255 kts | 121° |
| 2026-05-05 01:59 | 34.29689 | -117.34615 | 10246 ft | 249 kts | 147° |
| 2026-05-05 01:59 | 34.28104 | -117.33838 | 10074 ft | 244 kts | 162° |
| 2026-05-05 01:59 | 34.26487 | -117.33297 | 9870 ft | 240 kts | 162° |
| 2026-05-05 01:59 | 34.24902 | -117.32777 | 9666 ft | 236 kts | 163° |
| 2026-05-05 02:00 | 34.23330 | -117.32281 | 9460 ft | 232 kts | 164° |
| 2026-05-05 02:00 | 34.21780 | -117.31800 | 9253 ft | 229 kts | 164° |
| 2026-05-05 02:00 | 34.20251 | -117.31332 | 9049 ft | 225 kts | 164° |
| 2026-05-05 02:00 | 34.18740 | -117.30872 | 8840 ft | 222 kts | 165° |
| 2026-05-05 02:01 | 34.17229 | -117.30413 | 8428 ft | 229 kts | 165° |
| 2026-05-05 02:01 | 34.15660 | -117.29938 | 7943 ft | 238 kts | 166° |
| 2026-05-05 02:01 | 34.14036 | -117.29449 | 7634 ft | 237 kts | 167° |
| 2026-05-05 02:01 | 34.12460 | -117.29394 | 7617 ft | 226 kts | 193° |
| 2026-05-05 02:02 | 34.11103 | -117.30287 | 7443 ft | 230 kts | 215° |
| 2026-05-05 02:02 | 34.09850 | -117.31637 | 6598 ft | 247 kts | 220° |
| 2026-05-05 02:02 | 34.08640 | -117.33044 | 5990 ft | 241 kts | 221° |
| 2026-05-05 02:02 | 34.07457 | -117.34450 | 5381 ft | 236 kts | 222° |
| 2026-05-05 02:03 | 34.06344 | -117.35846 | 4774 ft | 233 kts | 231° |
| 2026-05-05 02:03 | 34.05603 | -117.37514 | 4397 ft | 223 kts | 254° |
| 2026-05-05 02:03 | 34.05499 | -117.39342 | 4092 ft | 213 kts | 267° |
| 2026-05-05 02:03 | 34.05512 | -117.41070 | 3870 ft | 200 kts | 265° |
| 2026-05-05 02:04 | 34.05502 | -117.42708 | 3656 ft | 187 kts | 265° |
| 2026-05-05 02:04 | 34.05498 | -117.44198 | 3487 ft | 170 kts | 265° |
| 2026-05-05 02:04 | 34.05476 | -117.45565 | 3233 ft | 158 kts | 265° |
| 2026-05-05 02:04 | 34.05482 | -117.46865 | 2921 ft | 151 kts | 267° |
| 2026-05-05 02:05 | 34.05504 | -117.48109 | 2658 ft | 145 kts | 266° |
| 2026-05-05 02:05 | 34.05505 | -117.49299 | 2429 ft | 140 kts | 266° |
| 2026-05-05 02:05 | 34.05499 | -117.50444 | 2216 ft | 136 kts | 266° |
| 2026-05-05 02:05 | 34.05512 | -117.51578 | 2043 ft | 133 kts | 266° |
| 2026-05-05 02:06 | 34.05496 | -117.52691 | 1879 ft | 134 kts | 266° |
| 2026-05-05 02:06 | 34.05490 | -117.53804 | 1712 ft | 131 kts | 266° |
| 2026-05-05 02:06 | 34.05494 | -117.54916 | 1541 ft | 134 kts | 266° |
| 2026-05-05 02:06 | 34.05494 | -117.56044 | 1358 ft | 136 kts | 267° |
| 2026-05-05 02:07 | 34.05494 | -117.57194 | 1154 ft | 135 kts | 267° |
| 2026-05-05 02:07 | 34.05495 | -117.58312 | 961 ft | 134 kts | 268° |
| 2026-05-05 02:07 | 34.05495 | -117.59361 | 927 ft | 111 kts | 270° |
| 2026-05-05 02:07 | 34.05497 | -117.60067 | 927 ft | 49 kts | 270° |
| 2026-05-05 02:08 | 34.05496 | -117.60321 | 930 ft | 19 kts | 269° |
| 2026-05-05 02:08 | 34.05459 | -117.60415 | 929 ft | 8 kts | 172° |
| 2026-05-05 02:08 | 34.05412 | -117.60385 | 927 ft | 5 kts | 146° |
| 2026-05-05 02:08 | 34.05397 | -117.60364 | 926 ft | 0 kts | 118° |
| 2026-05-05 02:09 | 34.05391 | -117.60349 | 926 ft | 0 kts | 117° |
| 2026-05-05 02:09 | 34.05390 | -117.60345 | 926 ft | 0 kts | 109° |
| 2026-05-05 02:09 | 34.05386 | -117.60310 | 925 ft | 6 kts | 95° |
| 2026-05-05 02:09 | 34.05384 | -117.60244 | 924 ft | 9 kts | 92° |
| 2026-05-05 02:10 | 34.05384 | -117.60156 | 922 ft | 11 kts | 90° |
| 2026-05-05 02:10 | 34.05384 | -117.60055 | 922 ft | 12 kts | 90° |
| 2026-05-05 02:10 | 34.05384 | -117.59946 | 922 ft | 13 kts | 90° |
| 2026-05-05 02:10 | 34.05383 | -117.59833 | 922 ft | 13 kts | 90° |
| 2026-05-05 02:11 | 34.05384 | -117.59713 | 922 ft | 14 kts | 89° |
| 2026-05-05 02:11 | 34.05385 | -117.59587 | 922 ft | 15 kts | 91° |
| 2026-05-05 02:11 | 34.05383 | -117.59456 | 922 ft | 16 kts | 91° |
| 2026-05-05 02:11 | 34.05383 | -117.59321 | 922 ft | 16 kts | 89° |
| 2026-05-05 02:12 | 34.05385 | -117.59177 | 922 ft | 17 kts | 91° |
| 2026-05-05 02:12 | 34.05386 | -117.58875 | 922 ft | 18 kts | 91° |
| 2026-05-05 02:12 | 34.05383 | -117.58714 | 922 ft | 19 kts | 91° |
| 2026-05-05 02:13 | 34.05387 | -117.58549 | 922 ft | 19 kts | 92° |
| 2026-05-05 02:13 | 34.05384 | -117.58382 | 922 ft | 19 kts | 89° |
| 2026-05-05 02:13 | 34.05354 | -117.58249 | 922 ft | 16 kts | 161° |
| 2026-05-05 02:13 | 34.05249 | -117.58189 | 917 ft | 17 kts | 117° |
| 2026-05-05 02:14 | 34.05237 | -117.58073 | 918 ft | 11 kts | 106° |
| 2026-05-05 02:14 | 34.05181 | -117.58046 | 917 ft | 9 kts | 181° |
| 2026-05-05 02:14 | 34.05109 | -117.58049 | 914 ft | 8 kts | 181° |
| 2026-05-05 02:14 | 34.05089 | -117.58032 | 913 ft | 0 kts | 107° |
| 2026-05-05 02:15 | 34.05089 | -117.58014 | 914 ft | 4 kts | 91° |
| 2026-05-05 02:15 | 34.05088 | -117.57980 | 914 ft | 0 kts | 89° |